Latest Coastal Weather Observations for Christmas Island

IDW60701

Issued at 2:53 pm WST Saturday 10 December 2016 (issued every 10 minutes, with the page automatically refreshed every 10 minutes)

About coastal observations | Map of coastal stations | Coastal observations for WA | Marine services | Other Formats
Station Details ID: 200790 Name: CHRISTMAS ISLAND AERO Lat: -10.45 Lon: 105.69 Height: 261.0 m
Data from the previous 72 hours. | See also: Recent months at Christmas Island
Date/Time
WST
Temp
°C
Wind Pressure Rain since
9am
mm
Weather Cloud Vis
km
Sea
Height
m
Swell
Dir  Spd
kts
Gust
kts
hPa Trend Height
m
Period
s
Dir
10/02:48pm 27.0 WNW 11 18 1008.9 - 2.8 - Partly cloudy 10 - - - -
10/02:42pm 27.2 WNW 10 16 1009.0 - 2.8 - Partly cloudy 10 - - - -
10/02:30pm 27.5 W 8 14 1009.1 - 2.8 - Partly cloudy 10 - - - -
10/02:01pm 27.4 NW 9 17 1009.3 - 2.8 - Partly cloudy 10 - - - -
10/02:00pm 27.7 WNW 9 17 1009.3 - 2.8 - Partly cloudy 10 - - - -
10/01:38pm 27.3 NW 10 15 1009.4 - 2.6 - Partly cloudy 10 - - - -
10/01:30pm 27.1 WNW 9 15 1009.5 - 2.6 - Partly cloudy 10 - - - -
10/01:00pm 26.9 NW 8 13 1008.3 - 2.6 - Cloudy 10 - - - -
10/12:43pm 26.8 NW 6 11 1010.1 - 2.2 - Partly cloudy 10 - - - -
10/12:30pm 26.7 NW 8 15 1010.2 - 2.2 - Partly cloudy 10 - - - -
10/12:04pm 25.7 WNW 5 10 1010.5 - 2.0 - Partly cloudy 10 - - - -
10/12:00pm 25.8 WNW 6 11 1010.5 - 2.0 - Partly cloudy 10 - - - -
10/11:42am 25.6 W 8 15 1010.7 - 0.6 - Partly cloudy 6 - - - -
10/11:30am 27.3 WNW 6 13 1010.6 - 0.2 - Partly cloudy 10 - - - -
10/11:14am 27.5 NW 7 13 1010.8 - 0.2 - Partly cloudy 10 - - - -
10/11:00am 27.6 WNW 8 14 1010.9 - 0.2 - Partly cloudy 10 - - - -
10/10:59am 27.6 WNW 8 14 1010.9 - 0.2 - Partly cloudy 10 - - - -
10/10:30am 27.4 NW 8 13 1011.0 - 0.2 - Partly cloudy 10 - - - -
10/10:04am 27.4 NNW 7 12 1011.0 - 0.2 - Partly cloudy 10 - - - -
10/10:00am 27.1 NNW 7 10 1009.4 - 8.4 - Partly cloudy 10 - - - -
10/09:47am 26.9 NNW 8 14 1010.9 - 8.4 - Partly cloudy 10 - - - -
10/09:30am 26.4 NW 8 13 1010.8 - 8.4 - Partly cloudy 10 - - - -
10/09:00am 26.3 NW 7 14 1010.5 - 8.4 - Partly cloudy 10 - - - -
10/08:37am 25.4 NNW 7 12 1010.4 - 8.4 - Partly cloudy 10 - - - -
10/08:30am 25.3 NNW 6 10 1010.4 - 8.4 - Partly cloudy 10 - - - -
10/08:00am 25.0 NNW 7 13 1010.4 - 8.4 - Partly cloudy 10 - - - -
10/07:30am 24.8 NW 6 10 1010.3 - 8.4 - Partly cloudy 10 - - - -
10/07:00am 24.6 NW 7 13 1008.4 - 8.4 - Partly cloudy 10 - - - -
10/06:55am 24.6 NNW 6 13 1010.0 - 8.4 - Partly cloudy 10 - - - -
10/06:42am 24.4 NNW 6 12 1009.9 - 8.4 - Partly cloudy 10 - - - -
10/06:32am 24.4 NNW 5 8 1010.0 - 8.4 - Partly cloudy 10 - - - -
10/06:30am 24.4 NNW 5 8 1010.0 - 8.4 - Partly cloudy 10 - - - -
10/06:21am 24.3 NW 4 7 1010.0 - 8.4 - Partly cloudy 10 - - - -
10/06:07am 24.3 NW 5 10 1009.8 - 8.4 - Partly cloudy 10 - - - -
10/06:00am 24.3 NW 6 9 1009.7 - 8.4 - Partly cloudy 10 - - - -
10/05:43am 24.2 NW 7 10 1009.6 - 8.4 - Partly cloudy 10 - - - -
10/05:30am 24.2 NW 5 9 1009.6 - 8.4 - Partly cloudy 10 - - - -
10/05:00am 24.0 NW 7 12 1009.5 - 8.4 - Partly cloudy 10 - - - -
10/04:30am 23.8 NW 9 15 1009.2 - 8.4 - - 10 - - - -
10/04:00am 23.7 NW 9 15 1007.9 - 8.4 - - 10 - - - -
10/03:30am 23.6 WNW 8 13 1009.9 - 8.4 - - 10 - - - -
10/03:00am 23.6 WNW 8 14 1010.2 - 8.4 - Partly cloudy 10 - - - -
10/02:57am 23.6 WNW 8 14 1010.2 - 8.4 - Partly cloudy 10 - - - -
10/02:44am 23.8 NW 8 13 1010.2 - 8.4 - Partly cloudy 10 - - - -
10/02:30am 24.0 NE 5 6 1010.1 - 7.6 - Partly cloudy 10 - - - -
10/02:00am 23.9 NE 4 6 1010.3 - 7.6 - - 10 - - - -
10/01:30am 23.9 NE 4 5 1010.5 - 7.6 - - 10 - - - -
10/01:00am 24.0 NE 4 6 1009.0 - 7.6 - - 10 - - - -
10/12:30am 24.0 NE 5 6 1010.8 - 7.6 - - 10 - - - -
10/12:00am 24.0 NE 4 7 1011.0 - 7.6 - - 10 - - - -
 
Date/Time
WST
Temp
°C
Wind Pressure Rain since
9am
mm
Weather Cloud Vis
km
Sea
Height
m
Swell
Dir  Spd
kts
Gust
kts
hPa Trend Height
m
Period
s
Dir
09/11:30pm 24.2 NE 4 6 1011.2 - 7.6 - - 10 - - - -
09/11:00pm 24.2 NE 6 9 1011.1 - 7.6 - Partly cloudy 10 - - - -
09/10:57pm 24.2 NE 6 9 1011.0 - 7.6 - Partly cloudy 10 - - - -
09/10:30pm 24.4 ENE 8 11 1010.8 - 7.6 - Partly cloudy 10 - - - -
09/10:00pm 24.4 E 5 7 1009.1 - 7.6 - Mostly cloudy 10 - - - -
09/09:56pm 24.3 E 6 8 1010.7 - 7.6 - Partly cloudy 10 - - - -
09/09:30pm 24.3 E 5 6 1010.4 - 7.6 - - 10 - - - -
09/09:00pm 23.9 E 5 6 1010.0 - 7.6 - Partly cloudy 10 - - - -
09/08:30pm 23.5 N 4 6 1009.8 - 7.4 - Cloudy 10 - - - -
09/08:26pm 23.4 N 2 5 1009.8 - 7.2 - Cloudy 10 - - - -
09/08:13pm 23.0 CALM 0 0 1009.7 - 7.0 - Partly cloudy 6 - - - -
09/08:00pm 22.6 N 3 5 1009.6 - 6.6 - Partly cloudy 10 - - - -
09/07:36pm 22.7 N 9 12 1009.5 - 4.8 - Partly cloudy 5 - - - -
09/07:30pm 23.2 NNE 7 11 1009.4 - 3.8 - Partly cloudy 5 - - - -
09/07:11pm 23.5 NNE 12 17 1009.5 - 0.2 - Partly cloudy 6 - - - -
09/07:09pm 23.6 NNE 13 17 1009.4 - 0.2 - Partly cloudy 6 - - - -
09/07:00pm 26.0 SE 5 11 1007.4 - 0.2 - Cloudy 10 - - - -
09/06:30pm 26.1 SE 5 7 1008.8 - 0.2 - Partly cloudy 10 - - - -
09/06:00pm 26.2 SE 7 9 1008.5 - 0.2 - Partly cloudy 10 - - - -
09/05:56pm 26.1 SE 6 9 1008.4 - 0.2 - Partly cloudy 10 - - - -
09/05:30pm 26.4 SE 8 13 1008.4 - 0.2 - Partly cloudy 10 - - - -
09/05:00pm 26.0 SE 8 11 1008.3 - 0.2 - Partly cloudy 10 - - - -
09/04:30pm 26.4 SE 8 11 1008.3 - 0.2 - Partly cloudy 10 - - - -
09/04:11pm 26.5 SE 9 11 1008.2 - 0.2 - Partly cloudy 10 - - - -
09/04:00pm 26.4 SE 7 10 1006.6 - 0.2 - Cloudy 10 - - - -
09/03:52pm 26.5 SE 8 11 1008.3 - 0.2 - Partly cloudy 10 - - - -
09/03:30pm 26.6 SE 8 11 1008.5 - 0.2 - Partly cloudy 10 - - - -
09/03:25pm 26.8 SE 9 13 1008.4 - 0.2 - Partly cloudy 10 - - - -
09/03:00pm 26.7 ESE 10 14 1008.5 - 0.2 - Partly cloudy 10 - - - -
09/02:53pm 26.8 ESE 10 13 1008.7 - 0.2 - Partly cloudy 10 - - - -
09/02:30pm 26.9 SE 10 13 1008.9 - 0.2 - Partly cloudy 10 - - - -
09/02:00pm 26.8 ESE 9 14 1009.2 - 0.2 - Partly cloudy 10 - - - -
09/01:30pm 27.2 ESE 11 14 1009.4 - 0.2 - Partly cloudy 10 - - - -
09/01:10pm 26.9 ESE 10 13 1009.5 - 0.2 - Partly cloudy 10 - - - -
09/01:00pm 27.4 ESE 10 14 1008.0 - 0.2 - Cloudy 10 - - - -
09/12:30pm 27.6 ESE 9 13 1010.0 - 0.2 - Partly cloudy 10 - - - -
09/12:00pm 27.3 ESE 7 11 1010.3 - 0.2 - Partly cloudy 10 - - - -
09/11:30am 26.9 ESE 7 11 1010.5 - 0.2 - Partly cloudy 10 - - - -
09/11:00am 27.4 ESE 7 10 1010.4 - 0.2 - Partly cloudy 10 - - - -
09/10:44am 26.7 ESE 6 10 1010.5 - 0.2 - Partly cloudy 10 - - - -
09/10:33am 26.8 E 6 9 1010.5 - 0.2 - Partly cloudy 10 - - - -
09/10:30am 26.8 ESE 6 10 1010.5 - 0.2 - Partly cloudy 10 - - - -
09/10:00am 26.6 ESE 6 9 1008.8 - 0.6 - Mostly cloudy 10 - - - -
09/09:35am 25.8 ESE 7 9 1010.4 - 0.6 - Partly cloudy 10 - - - -
09/09:30am 25.7 ESE 6 9 1010.4 - 0.6 - Partly cloudy 10 - - - -
09/09:00am 25.4 ESE 6 8 1010.2 - 0.6 - Partly cloudy 10 - - - -
09/08:30am 24.9 ESE 6 9 1010.0 - 0.6 - Partly cloudy 10 - - - -
09/08:00am 24.7 SE 7 9 1009.9 - 0.6 - Partly cloudy 10 - - - -
09/07:30am 24.1 NNE 6 8 1009.7 - 0.6 - Partly cloudy 10 - - - -
09/07:06am 23.7 N 4 5 1009.6 - 0.6 - Partly cloudy 10 - - - -
09/07:00am 23.6 N 3 4 1008.0 - 0.6 - Mostly clear 10 - - - -
09/06:48am 23.5 CALM 0 2 1009.5 - 0.6 - Partly cloudy 10 - - - -
09/06:30am 23.6 N 3 4 1009.3 - 0.6 - Partly cloudy 10 - - - -
09/06:08am 23.5 N 3 5 1009.1 - 0.6 - Partly cloudy 10 - - - -
09/06:00am 23.5 N 4 5 1009.1 - 0.6 - Partly cloudy 10 - - - -
09/05:42am 23.5 N 3 3 1009.2 - 0.6 - Partly cloudy 10 - - - -
09/05:30am 23.5 N 1 3 1009.1 - 0.6 - Partly cloudy 10 - - - -
09/05:02am 23.2 CALM 0 0 1009.3 - 0.6 - Partly cloudy 10 - - - -
09/05:00am 23.2 CALM 0 2 1009.3 - 0.6 - Partly cloudy 10 - - - -
09/04:30am 23.4 N 3 4 1009.3 - 0.6 - Partly cloudy 10 - - - -
09/04:05am 23.5 N 3 4 1009.3 - 0.6 - Partly cloudy 10 - - - -
09/04:00am 23.6 N 3 4 1007.8 - 0.6 - Mostly cloudy 10 - - - -
09/03:42am 23.5 N 5 7 1009.6 - 0.6 - Partly cloudy 6 - - - -
09/03:30am 23.4 N 5 7 1009.6 - 0.4 - Cloudy 10 - - - -
09/03:00am 23.2 N 3 5 1009.8 - 0.4 - Partly cloudy 10 - - - -
09/02:55am 23.1 N 3 4 1009.8 - 0.4 - Partly cloudy 10 - - - -
09/02:30am 23.3 N 5 7 1010.2 - 0.4 - Partly cloudy 10 - - - -
09/02:24am 23.3 N 5 7 1010.3 - 0.4 - Partly cloudy 10 - - - -
09/02:00am 23.4 N 6 9 1010.7 - 0.2 - Partly cloudy 5 - - - -
09/01:47am 23.7 N 6 9 1010.8 - 0.0 - Partly cloudy 3 - - - -
09/01:46am 23.7 N 6 9 1010.8 - 0.0 - Partly cloudy 4 - - - -
09/01:30am 24.6 ESE 4 9 1011.0 - 0.0 - Partly cloudy 10 - - - -
09/01:00am 24.9 SE 4 5 1009.7 - 0.0 - Cloudy 10 - - - -
09/12:30am 24.7 SE 4 5 1011.4 - 0.0 - Partly cloudy 10 - - - -
09/12:00am 24.5 SE 5 6 1011.6 - 0.0 - Partly cloudy 10 - - - -
 
Date/Time
WST
Temp
°C
Wind Pressure Rain since
9am
mm
Weather Cloud Vis
km
Sea
Height
m
Swell
Dir  Spd
kts
Gust
kts
hPa Trend Height
m
Period
s
Dir
08/11:30pm 24.7 SE 5 7 1011.7 - 0.0 - Partly cloudy 10 - - - -
08/11:00pm 24.9 SE 5 8 1011.6 - 0.0 - Partly cloudy 10 - - - -
08/10:30pm 25.0 SE 5 7 1011.7 - 0.0 - Partly cloudy 10 - - - -
08/10:00pm 24.9 SE 6 8 1009.9 - 0.0 - Cloudy 10 - - - -
08/09:30pm 24.9 SE 6 9 1011.5 - 0.0 - Partly cloudy 10 - - - -
08/09:00pm 24.8 SE 5 8 1011.3 - 0.0 - Partly cloudy 10 - - - -
08/08:30pm 24.7 SSE 5 8 1011.0 - 0.0 - Partly cloudy 10 - - - -
08/08:00pm 24.9 SE 6 9 1010.7 - 0.0 - Partly cloudy 10 - - - -
08/07:30pm 25.0 SE 5 9 1010.2 - 0.0 - Partly cloudy 10 - - - -
08/07:00pm 25.2 SE 6 8 1008.2 - 0.0 - Mostly clear 10 - - - -
08/06:30pm 25.6 SE 7 10 1009.7 - 0.0 - Partly cloudy 10 - - - -
08/06:00pm 26.0 S 5 7 1009.3 - 0.0 - Partly cloudy 10 - - - -
08/05:30pm 26.2 SSE 5 8 1009.0 - 0.0 - - 10 - - - -
08/05:00pm 26.2 S 6 9 1008.8 - 0.0 - - 10 - - - -
08/04:30pm 26.7 SSE 6 9 1008.7 - 0.0 - Partly cloudy 10 - - - -
08/04:00pm 27.6 SSE 7 12 1007.1 - 0.0 - Cloudy 10 - - - -
08/03:30pm 27.5 SSE 6 11 1008.8 - 0.0 - Partly cloudy 10 - - - -
08/03:00pm 27.6 SE 7 11 1008.9 - 0.0 - Partly cloudy 10 - - - -
08/02:30pm 27.0 SSE 6 11 1009.3 - 0.0 - Partly cloudy 10 - - - -
08/02:00pm 26.7 S 6 10 1009.5 - 0.0 - Partly cloudy 10 - - - -
08/01:30pm 27.3 SSE 7 11 1009.8 - 0.0 - Partly cloudy 10 - - - -
08/01:00pm 26.9 SSE 7 12 1008.3 - 0.0 - Mostly clear 10 - - - -
08/12:30pm 26.5 SSE 8 12 1010.1 - 0.0 - Partly cloudy 10 - - - -
08/12:00pm 27.3 SSE 7 11 1010.5 - 0.0 - Partly cloudy 10 - - - -
08/11:30am 26.8 SSE 7 10 1010.7 - 0.0 - Partly cloudy 10 - - - -
08/11:00am 27.1 SSE 7 11 1011.0 - 0.0 - Partly cloudy 10 - - - -
08/10:30am 26.8 SSE 7 11 1011.2 - 0.0 - Partly cloudy 10 - - - -
08/10:00am 26.1 SSE 7 11 1009.6 - 0.0 - Mostly clear 10 - - - -
08/09:30am 26.0 SE 7 10 1011.2 - 0.0 - Partly cloudy 10 - - - -
08/09:00am 25.8 SE 6 11 1010.9 - 0.0 - Partly cloudy 10 - - - -
08/08:30am 25.5 SSE 7 12 1010.7 - 0.0 - Partly cloudy 10 - - - -
08/08:00am 25.5 SSE 7 10 1010.4 - 0.0 - Partly cloudy 10 - - - -
08/07:30am 25.3 SSE 7 12 1010.0 - 0.0 - Partly cloudy 10 - - - -
08/07:00am 24.4 SE 5 8 1008.2 - 0.0 - Mostly clear 10 - - - -
08/06:30am 24.2 SE 6 10 1009.5 - 0.0 - Partly cloudy 10 - - - -
08/06:00am 24.3 SSE 7 12 1009.5 - 0.0 - Partly cloudy 10 - - - -
08/05:30am 24.1 SE 7 11 1009.3 - 0.0 - Partly cloudy 10 - - - -
08/05:00am 24.1 S 6 11 1009.3 - 0.0 - Partly cloudy 10 - - - -
08/04:30am 24.2 SSE 6 12 1009.0 - 0.0 - Partly cloudy 10 - - - -
08/04:00am 24.1 SSE 5 9 1007.4 - 0.0 - Mostly clear 10 - - - -
08/03:30am 24.2 SSE 5 9 1009.2 - 0.0 - Partly cloudy 10 - - - -
08/03:00am 24.3 SSE 6 10 1009.3 - 0.0 - Partly cloudy 10 - - - -
08/02:30am 24.1 S 5 8 1009.4 - 0.0 - Partly cloudy 10 - - - -
08/02:00am 24.3 SSE 5 7 1009.8 - 0.0 - Partly cloudy 10 - - - -
08/01:30am 24.3 SE 5 9 1010.1 - 0.0 - Partly cloudy 10 - - - -
08/01:00am 24.3 SSE 5 9 1008.9 - 0.0 - Cloudy 10 - - - -
08/12:30am 24.4 SSE 6 10 1010.9 - 0.0 - Partly cloudy 10 - - - -
08/12:00am 24.4 SE 6 9 1011.6 - 0.0 - Partly cloudy 10 - - - -
 
Date/Time
WST
Temp
°C
Wind Pressure Rain since
9am
mm
Weather Cloud Vis
km
Sea
Height
m
Swell
Dir  Spd
kts
Gust
kts
hPa Trend Height
m
Period
s
Dir
07/11:30pm 24.4 SE 6 9 1011.9 - 0.0 - Partly cloudy 10 - - - -
07/11:00pm 24.5 SE 5 9 1012.2 - 0.0 - Partly cloudy 10 - - - -
07/10:30pm 24.5 SSE 6 11 1012.2 - 0.0 - Partly cloudy 10 - - - -
07/10:00pm 24.5 SSE 6 9 1010.5 - 0.0 - Partly cloudy 10 - - - -
07/09:30pm 24.7 SE 7 11 1011.9 - 0.0 - Partly cloudy 10 - - - -
07/09:00pm 24.7 SE 7 11 1011.8 - 0.0 - Partly cloudy 10 - - - -
07/08:30pm 24.6 SSE 6 10 1011.6 - 0.0 - Partly cloudy 10 - - - -
07/08:00pm 24.8 SSE 7 12 1011.2 - 0.0 - Partly cloudy 10 - - - -
07/07:30pm 24.7 SSE 6 10 1010.9 - 0.0 - Partly cloudy 10 - - - -
07/07:00pm 25.0 SSE 7 13 1009.0 - 0.0 - Cloudy 10 - - - -
07/06:30pm 25.3 SSE 8 14 1010.2 - 0.0 - Partly cloudy 10 - - - -
07/06:00pm 25.5 SSE 8 12 1009.8 - 0.0 - Partly cloudy 10 - - - -
07/05:30pm 26.0 SSE 9 15 1009.6 - 0.0 - Partly cloudy 10 - - - -
07/05:17pm 26.1 SSE 8 14 1009.5 - 0.0 - Partly cloudy 10 - - - -
07/05:00pm 25.7 SSE 9 15 1009.6 - 0.0 - Partly cloudy 10 - - - -
07/04:54pm 25.9 SSE 9 15 1009.5 - 0.0 - Partly cloudy 10 - - - -
07/04:30pm 25.9 SSE 9 16 1009.4 - 0.0 - Partly cloudy 10 - - - -
07/04:16pm 26.5 SSE 8 13 1009.4 - 0.0 - Partly cloudy 10 - - - -
07/04:06pm 26.5 SSE 9 16 1009.3 - 0.0 - Partly cloudy 10 - - - -
07/04:00pm 26.4 SSE 8 15 1007.5 - 0.0 - Cloudy 10 - - - -

Other Formats:

Comma delimited format used in spreadsheet applications
http://www.bom.gov.au/fwo/IDW60701/IDW60701.96995.axf

JavaScript Object Notation format (JSON) in row-major order
http://www.bom.gov.au/fwo/IDW60701/IDW60701.96995.json